Time;durP1;ratioP1;P1;durP2;ratioP2;P2;SDS_P1;SDS_P2;PMS_P1;PMS_P2;Temp;Humidity;BMP_temperature;BMP_pressure;BME280_temperature;BME280_humidity;BME280_pressure;Samples;Min_cycle;Max_cycle;Signal;HPM_P1;HPM_P2
2021/11/13 00:00:31;;;;;;;44.08;20.85;;;;;;;9.04;100.00;100882.16;5077250;28;20402;-75
2021/11/13 00:03:00;;;;;;;48.65;23.42;;;;;;;9.06;100.00;100883.91;5068948;28;20048;-76
2021/11/13 00:05:29;;;;;;;45.22;20.45;;;;;;;9.09;100.00;100896.22;5072821;28;20090;-76
2021/11/13 00:07:57;;;;;;;44.83;22.33;;;;;;;9.12;100.00;100878.41;5066800;28;20076;-77
2021/11/13 00:10:27;;;;;;;42.65;22.77;;;;;;;9.13;100.00;100889.94;5072668;28;20048;-76
2021/11/13 00:12:57;;;;;;;45.97;21.55;;;;;;;9.14;100.00;100884.56;5069729;28;20051;-76
2021/11/13 00:15:26;;;;;;;40.90;20.25;;;;;;;9.14;100.00;100879.25;5075631;28;20127;-76
2021/11/13 00:17:54;;;;;;;42.15;20.50;;;;;;;9.16;100.00;100873.91;5067118;28;20071;-76
2021/11/13 00:20:24;;;;;;;43.70;21.75;;;;;;;9.14;100.00;100879.25;5072801;28;20879;-76
2021/11/13 00:22:53;;;;;;;42.50;20.85;;;;;;;9.15;100.00;100864.16;5068264;28;20468;-69
2021/11/13 00:25:21;;;;;;;38.35;19.17;;;;;;;9.15;100.00;100873.00;5074664;28;20113;-69
2021/11/13 00:27:51;;;;;;;41.42;21.02;;;;;;;9.18;100.00;100869.41;5067857;28;20489;-69
2021/11/13 00:30:20;;;;;;;42.33;21.35;;;;;;;9.19;100.00;100862.28;5073127;28;20230;-69
2021/11/13 00:32:48;;;;;;;41.72;19.88;;;;;;;9.26;100.00;100870.06;5067926;28;20059;-69
2021/11/13 00:35:17;;;;;;;44.30;21.67;;;;;;;9.25;100.00;100864.78;5075457;28;20078;-74
2021/11/13 00:37:45;;;;;;;44.28;21.42;;;;;;;9.23;100.00;100862.16;5066574;28;20139;-75
2021/11/13 00:40:16;;;;;;;41.95;21.67;;;;;;;9.22;100.00;100856.88;5076236;28;20055;-69
2021/11/13 00:42:47;;;;;;;44.70;21.45;;;;;;;9.25;100.00;100856.81;5067280;28;20079;-69
2021/11/13 00:45:17;;;;;;;42.03;22.80;;;;;;;9.26;100.00;100858.53;5076722;28;20047;-69
2021/11/13 00:47:45;;;;;;;44.28;21.40;;;;;;;9.33;100.00;100847.69;5069105;28;20066;-68
2021/11/13 00:50:13;;;;;;;40.63;21.02;;;;;;;9.34;100.00;100845.91;5077735;28;21261;-69
2021/11/13 00:52:42;;;;;;;39.60;20.00;;;;;;;9.33;100.00;100850.34;5071487;28;20331;-69
2021/11/13 00:55:12;;;;;;;37.22;20.00;;;;;;;9.34;100.00;100844.09;5077502;28;20184;-69
2021/11/13 00:57:40;;;;;;;35.97;18.88;;;;;;;9.37;100.00;100842.28;5073908;28;20047;-75
2021/11/13 01:00:11;;;;;;;37.72;19.35;;;;;;;9.37;100.00;100839.63;5073915;28;20056;-75
2021/11/13 01:02:40;;;;;;;44.58;20.92;;;;;;;9.41;100.00;100847.47;5072747;28;20499;-75
2021/11/13 01:05:09;;;;;;;39.83;19.85;;;;;;;9.38;100.00;100834.25;5076239;28;20102;-75
2021/11/13 01:07:37;;;;;;;45.05;20.45;;;;;;;9.40;100.00;100835.09;5072391;28;20036;-75
2021/11/13 01:10:08;;;;;;;33.63;19.48;;;;;;;9.45;100.00;100830.50;5078045;28;20059;-76
2021/11/13 01:12:38;;;;;;;45.15;21.08;;;;;;;9.48;100.00;100832.19;5072405;28;20048;-75
2021/11/13 01:15:08;;;;;;;38.83;20.10;;;;;;;9.54;100.00;100826.72;5075602;28;20044;-69
2021/11/13 01:17:36;;;;;;;39.97;21.13;;;;;;;9.58;100.00;100822.16;5073228;28;20076;-69
2021/11/13 01:20:09;;;;;;;36.83;20.42;;;;;;;9.60;100.00;100829.19;5075999;28;20131;-69
2021/11/13 01:22:37;;;;;;;35.45;18.52;;;;;;;9.62;100.00;100824.72;5071892;28;20467;-69
2021/11/13 01:25:07;;;;;;;34.25;18.80;;;;;;;9.63;100.00;100822.91;5070172;28;20095;-69
2021/11/13 01:27:34;;;;;;;34.42;18.45;;;;;;;9.65;100.00;100821.06;5077251;28;20044;-69
2021/11/13 01:30:04;;;;;;;34.78;17.52;;;;;;;9.72;100.00;100814.63;5076046;28;20417;-69
2021/11/13 01:32:32;;;;;;;31.35;16.27;;;;;;;9.77;100.00;100817.19;5072495;28;20052;-69
2021/11/13 01:35:01;;;;;;;30.88;15.93;;;;;;;9.77;100.00;100825.19;5074280;28;20158;-69
2021/11/13 01:37:31;;;;;;;32.22;16.50;;;;;;;9.78;100.00;100818.94;5075319;28;20067;-69
2021/11/13 01:39:59;;;;;;;30.45;16.38;;;;;;;9.80;100.00;100825.09;5076848;28;20052;-69
2021/11/13 01:42:29;;;;;;;31.23;15.20;;;;;;;9.80;100.00;100819.75;5072988;28;20296;-69
2021/11/13 01:44:58;;;;;;;28.60;14.77;;;;;;;9.79;100.00;100821.56;5075548;28;20138;-74
2021/11/13 01:47:26;;;;;;;26.73;14.32;;;;;;;9.85;100.00;100820.50;5070589;28;20087;-69
2021/11/13 01:49:54;;;;;;;27.30;13.23;;;;;;;9.86;100.00;100816.94;5069354;28;20076;-69
2021/11/13 01:52:22;;;;;;;28.60;13.23;;;;;;;9.84;100.00;100811.66;5074513;28;20094;-75
2021/11/13 01:54:52;;;;;;;28.80;12.52;;;;;;;9.87;100.00;100816.00;5069625;28;20090;-76
2021/11/13 01:57:23;;;;;;;27.65;12.02;;;;;;;9.89;100.00;100816.81;5076996;28;20167;-73
2021/11/13 01:59:54;;;;;;;25.50;11.02;;;;;;;9.90;100.00;100810.56;5074607;28;20642;-73
2021/11/13 02:02:23;;;;;;;31.02;10.55;;;;;;;9.94;100.00;100814.88;5072696;28;20360;-76
2021/11/13 02:04:51;;;;;;;25.90;11.45;;;;;;;9.95;100.00;100807.78;5067779;28;20184;-74
2021/11/13 02:07:19;;;;;;;26.73;11.60;;;;;;;9.91;100.00;100815.88;5074330;28;20328;-74
2021/11/13 02:09:47;;;;;;;23.58;11.13;;;;;;;9.94;100.00;100808.69;5071118;28;20071;-74
2021/11/13 02:12:16;;;;;;;29.40;10.70;;;;;;;10.00;100.00;100808.53;5074795;28;20452;-73
2021/11/13 02:14:44;;;;;;;26.60;11.10;;;;;;;10.03;100.00;100803.09;5069024;28;20048;-74
2021/11/13 02:17:12;;;;;;;26.92;11.25;;;;;;;10.06;100.00;100802.97;5076115;28;20126;-73
2021/11/13 02:19:40;;;;;;;25.85;10.15;;;;;;;10.05;100.00;100801.25;5070723;28;20062;-71
2021/11/13 02:22:09;;;;;;;27.10;10.90;;;;;;;10.05;100.00;100804.78;5070039;28;20072;-71
2021/11/13 02:24:37;;;;;;;34.28;12.10;;;;;;;10.04;100.00;100797.69;5071792;28;20079;-71
2021/11/13 02:27:06;;;;;;;32.35;12.55;;;;;;;10.04;100.00;100797.69;5074985;28;20143;-71
2021/11/13 02:29:34;;;;;;;26.27;12.82;;;;;;;10.03;100.00;100785.31;5069901;28;20507;-72
2021/11/13 02:32:01;;;;;;;28.85;14.05;;;;;;;10.05;100.00;100788.78;5073957;28;20098;-71
2021/11/13 02:34:30;;;;;;;33.97;13.88;;;;;;;10.05;100.00;100788.78;5070081;28;20044;-71
2021/11/13 02:36:58;;;;;;;32.28;15.38;;;;;;;10.07;100.00;100788.75;5076184;28;20063;-72
2021/11/13 02:39:27;;;;;;;36.95;15.05;;;;;;;10.06;100.00;100789.66;5070330;28;20048;-72
2021/11/13 02:41:55;;;;;;;32.08;14.68;;;;;;;10.03;100.00;100790.63;5074187;28;20173;-72
2021/11/13 02:44:23;;;;;;;36.75;15.60;;;;;;;9.99;100.00;100796.09;5070189;28;20507;-71
2021/11/13 02:46:52;;;;;;;34.80;15.27;;;;;;;10.03;100.00;100798.63;5074673;28;20250;-73
2021/11/13 02:49:20;;;;;;;35.97;14.23;;;;;;;10.01;100.00;100796.91;5071250;28;20610;-72
2021/11/13 02:51:48;;;;;;;32.00;14.00;;;;;;;10.01;100.00;100796.91;5073992;28;20510;-71
2021/11/13 02:54:16;;;;;;;32.78;13.10;;;;;;;10.02;100.00;100785.34;5069887;28;20190;-71
2021/11/13 02:56:48;;;;;;;30.17;13.90;;;;;;;10.02;100.00;100794.22;5074346;28;20066;-73
2021/11/13 02:59:16;;;;;;;32.47;13.27;;;;;;;10.02;100.00;100801.34;5069970;28;20044;-71
2021/11/13 03:01:44;;;;;;;29.95;12.13;;;;;;;10.04;100.00;100797.69;5073934;28;20085;-73
2021/11/13 03:04:12;;;;;;;27.88;11.75;;;;;;;10.02;100.00;100796.88;5069699;28;20062;-73
2021/11/13 03:06:40;;;;;;;26.85;11.73;;;;;;;10.06;100.00;100793.22;5073393;28;20044;-72
2021/11/13 03:09:08;;;;;;;32.33;11.02;;;;;;;10.02;100.00;100794.22;5069629;28;20044;-72
2021/11/13 03:11:36;;;;;;;24.77;10.73;;;;;;;9.99;100.00;100796.97;5072502;28;20413;-72
2021/11/13 03:14:05;;;;;;;25.40;10.68;;;;;;;10.05;100.00;100786.13;5071034;28;20121;-73
2021/11/13 03:16:33;;;;;;;27.13;10.43;;;;;;;10.05;100.00;100795.91;5072673;28;20454;-74
2021/11/13 03:19:02;;;;;;;30.90;11.35;;;;;;;10.06;100.00;100787.88;5072203;28;20101;-72
2021/11/13 03:21:30;;;;;;;31.65;10.40;;;;;;;10.08;100.00;100786.03;5069865;28;20055;-74
2021/11/13 03:24:00;;;;;;;29.35;10.18;;;;;;;10.08;100.00;100783.38;5074330;28;20090;-73
2021/11/13 03:26:33;;;;;;;29.77;10.93;;;;;;;10.08;100.00;100790.50;5068643;28;20166;-69
2021/11/13 03:29:04;;;;;;;24.05;10.18;;;;;;;10.06;100.00;100781.66;5073771;28;20079;-69
2021/11/13 03:31:34;;;;;;;24.70;10.35;;;;;;;10.04;100.00;100780.84;5073929;28;20048;-69
2021/11/13 03:34:02;;;;;;;29.35;10.23;;;;;;;10.08;100.00;100778.03;5070055;28;20492;-68
2021/11/13 03:36:32;;;;;;;21.88;9.25;;;;;;;10.08;100.00;100791.38;5073314;28;20459;-68
2021/11/13 03:39:00;;;;;;;22.17;9.18;;;;;;;10.06;100.00;100793.22;5069077;28;20109;-68
2021/11/13 03:41:30;;;;;;;21.30;7.60;;;;;;;10.09;100.00;100802.91;5071740;28;20145;-68
2021/11/13 03:43:59;;;;;;;18.17;8.00;;;;;;;10.12;100.00;100799.28;5074240;28;20054;-68
2021/11/13 03:46:26;;;;;;;16.38;7.45;;;;;;;10.06;100.00;100819.88;5066724;28;20124;-68
2021/11/13 03:48:56;;;;;;;17.42;7.38;;;;;;;10.05;100.00;100803.91;5075331;28;20135;-68
2021/11/13 03:51:25;;;;;;;22.33;7.63;;;;;;;10.05;100.00;100815.44;5068597;28;20139;-68
2021/11/13 03:53:52;;;;;;;17.02;6.57;;;;;;;10.05;100.00;100820.78;5071431;28;20210;-68
2021/11/13 03:56:20;;;;;;;13.65;6.03;;;;;;;10.03;100.00;100819.09;5061777;28;21541;-68
2021/11/13 03:58:48;;;;;;;19.92;6.57;;;;;;;10.00;100.00;100813.84;5074214;28;20048;-68
2021/11/13 04:01:16;;;;;;;15.82;6.15;;;;;;;10.00;100.00;100819.19;5071811;28;20315;-68
2021/11/13 04:03:44;;;;;;;19.50;6.13;;;;;;;10.00;100.00;100816.50;5066238;28;20540;-68
2021/11/13 04:06:13;;;;;;;15.30;4.97;;;;;;;10.02;100.00;100817.34;5070907;28;20056;-68
2021/11/13 04:08:41;;;;;;;12.70;4.80;;;;;;;10.01;100.00;100816.47;5069870;28;20347;-68
2021/11/13 04:11:10;;;;;;;11.02;3.90;;;;;;;10.01;100.00;100815.56;5070970;28;20073;-68
2021/11/13 04:13:38;;;;;;;10.50;4.07;;;;;;;9.98;100.00;100821.03;5071194;28;20059;-68
2021/11/13 04:16:07;;;;;;;13.82;4.05;;;;;;;9.99;100.00;100820.09;5065217;28;20083;-68
2021/11/13 04:18:35;;;;;;;7.93;2.92;;;;;;;9.97;100.00;100825.47;5074187;28;20059;-68
2021/11/13 04:21:03;;;;;;;13.20;3.80;;;;;;;9.94;100.00;100819.34;5066906;28;20093;-68
2021/11/13 04:23:33;;;;;;;9.05;3.13;;;;;;;9.91;100.00;100820.34;5074858;28;20082;-68
2021/11/13 04:26:02;;;;;;;9.07;3.40;;;;;;;9.91;100.00;100823.88;5065391;28;20416;-68
2021/11/13 04:28:30;;;;;;;9.25;3.30;;;;;;;9.90;100.00;100818.56;5075497;28;21653;-69
2021/11/13 04:30:58;;;;;;;11.30;3.42;;;;;;;9.87;100.00;100822.19;5067122;28;20076;-69
2021/11/13 04:33:29;;;;;;;10.13;3.55;;;;;;;9.88;100.00;100826.63;5076251;28;20127;-68
2021/11/13 04:36:03;;;;;;;10.18;3.38;;;;;;;9.87;100.00;100839.97;5068466;28;20144;-68
2021/11/13 04:38:33;;;;;;;11.20;3.05;;;;;;;10.08;100.00;100842.03;5070605;28;20052;-68
2021/11/13 04:41:04;;;;;;;7.75;2.95;;;;;;;10.09;100.00;100840.22;5064981;28;20442;-68
2021/11/13 04:43:33;;;;;;;9.35;3.25;;;;;;;10.05;100.00;100844.78;5072559;28;20063;-68
2021/11/13 04:46:00;;;;;;;10.60;3.25;;;;;;;10.11;100.00;100849.03;5069504;28;20083;-69
2021/11/13 04:48:28;;;;;;;11.50;2.92;;;;;;;10.13;100.00;100857.88;5072988;28;20075;-69
2021/11/13 04:50:57;;;;;;;9.70;2.97;;;;;;;10.16;100.00;100856.91;5068866;28;20159;-69
2021/11/13 04:53:25;;;;;;;16.10;2.80;;;;;;;10.12;100.00;100852.59;5072664;28;20051;-69
2021/11/13 04:55:54;;;;;;;7.45;3.47;;;;;;;10.08;100.00;100858.03;5067737;28;20048;-74
2021/11/13 04:58:23;;;;;;;9.15;3.25;;;;;;;10.07;100.00;100856.25;5075268;28;20254;-74
2021/11/13 05:00:51;;;;;;;7.80;2.83;;;;;;;10.03;100.00;100856.41;5064764;28;20093;-73
2021/11/13 05:03:19;;;;;;;5.65;2.08;;;;;;;10.00;100.00;100862.69;5072327;28;20055;-74
2021/11/13 05:05:47;;;;;;;10.10;2.33;;;;;;;9.97;100.00;100857.44;5069040;28;20097;-75
2021/11/13 05:08:14;;;;;;;5.63;2.25;;;;;;;9.94;100.00;100862.88;5071957;28;20094;-73
2021/11/13 05:10:44;;;;;;;7.20;2.75;;;;;;;9.96;100.00;100860.16;5068765;28;20048;-74
2021/11/13 05:13:15;;;;;;;11.73;2.42;;;;;;;9.93;100.00;100858.47;5071733;28;20147;-73
2021/11/13 05:15:43;;;;;;;8.48;2.72;;;;;;;9.90;100.00;100861.22;5069169;28;20063;-74
2021/11/13 05:18:11;;;;;;;13.23;2.40;;;;;;;9.92;100.00;100872.69;5072334;28;20063;-73
2021/11/13 05:20:39;;;;;;;5.38;2.35;;;;;;;9.92;100.00;100878.03;5068097;28;20078;-74
2021/11/13 05:23:07;;;;;;;10.02;2.90;;;;;;;9.89;100.00;100884.34;5070832;28;20048;-72
2021/11/13 05:25:36;;;;;;;10.07;3.30;;;;;;;9.89;100.00;100878.13;5066339;28;20236;-72
2021/11/13 05:28:04;;;;;;;12.18;3.40;;;;;;;9.89;100.00;100876.34;5071218;28;20488;-71
2021/11/13 05:30:34;;;;;;;6.78;2.55;;;;;;;9.99;100.00;100874.25;5068903;28;20139;-71
2021/11/13 05:33:02;;;;;;;9.80;2.60;;;;;;;9.94;100.00;100884.19;5074533;28;20044;-67
2021/11/13 05:35:30;;;;;;;10.48;3.38;;;;;;;9.90;100.00;100885.22;5073170;28;20036;-66
2021/11/13 05:37:58;;;;;;;8.73;2.40;;;;;;;9.87;100.00;100885.28;5074046;28;20056;-67
2021/11/13 05:40:26;;;;;;;10.60;3.00;;;;;;;9.84;100.00;100882.69;5073003;28;20040;-67
2021/11/13 05:43:01;;;;;;;6.70;2.38;;;;;;;9.84;100.00;100882.69;5075326;28;20077;-67
2021/11/13 05:45:29;;;;;;;9.38;2.83;;;;;;;9.81;100.00;100885.47;5072437;28;20484;-67
2021/11/13 05:48:01;;;;;;;7.40;2.50;;;;;;;9.82;100.00;100888.06;5072614;28;20189;-74
2021/11/13 05:50:29;;;;;;;14.32;3.28;;;;;;;9.81;100.00;100889.00;5076679;28;20063;-68
2021/11/13 05:53:01;;;;;;;11.85;3.13;;;;;;;9.79;100.00;100890.84;5071386;28;20073;-68
2021/11/13 05:55:29;;;;;;;11.48;3.25;;;;;;;9.83;100.00;100895.16;5075994;28;20301;-68
2021/11/13 05:58:05;;;;;;;10.55;2.88;;;;;;;9.82;100.00;100897.88;5072379;28;20060;-69
2021/11/13 06:00:34;;;;;;;8.90;3.25;;;;;;;9.84;100.00;100893.38;5073996;28;20052;-68
2021/11/13 06:03:04;;;;;;;13.18;2.83;;;;;;;9.85;100.00;100897.78;5069055;28;20079;-68
2021/11/13 06:05:32;;;;;;;12.38;3.28;;;;;;;9.89;100.00;100897.66;5076631;28;20557;-67
2021/11/13 06:08:00;;;;;;;7.82;3.33;;;;;;;9.96;100.00;100898.38;5069014;28;20106;-67
2021/11/13 06:10:28;;;;;;;6.78;2.85;;;;;;;9.94;100.00;100900.19;5074711;28;20040;-67
2021/11/13 06:12:56;;;;;;;10.23;3.03;;;;;;;9.97;100.00;100908.09;5071592;28;20147;-69
2021/11/13 06:15:25;;;;;;;12.57;2.85;;;;;;;10.04;100.00;100912.31;5074396;28;20063;-68
2021/11/13 06:17:53;;;;;;;10.05;2.97;;;;;;;10.00;100.00;100909.81;5071159;28;20323;-68
2021/11/13 06:20:23;;;;;;;7.30;2.40;;;;;;;9.97;100.00;100910.75;5075201;28;20048;-68
2021/11/13 06:22:51;;;;;;;7.25;2.60;;;;;;;9.97;100.00;100915.22;5070621;28;20063;-68
2021/11/13 06:25:20;;;;;;;8.48;2.67;;;;;;;9.95;100.00;100914.41;5077122;28;20052;-68
2021/11/13 06:27:48;;;;;;;7.30;2.72;;;;;;;9.96;100.00;100922.38;5067939;28;20060;-68
2021/11/13 06:30:18;;;;;;;7.60;2.60;;;;;;;9.96;100.00;100929.47;5072996;28;20131;-68
2021/11/13 06:32:50;;;;;;;5.28;2.78;;;;;;;9.91;100.00;100929.63;5071974;28;20553;-68
2021/11/13 06:35:21;;;;;;;7.65;2.80;;;;;;;9.96;100.00;100926.78;5074311;28;20080;-68
2021/11/13 06:37:50;;;;;;;13.00;3.03;;;;;;;9.94;100.00;100933.97;5069546;28;20060;-73
2021/11/13 06:40:18;;;;;;;12.10;3.33;;;;;;;9.91;100.00;100935.81;5072738;28;20139;-73
2021/11/13 06:42:47;;;;;;;7.78;2.83;;;;;;;9.93;100.00;100938.44;5070693;28;20052;-74
2021/11/13 06:45:18;;;;;;;6.28;2.30;;;;;;;9.90;100.00;100938.50;5073264;28;20078;-73
2021/11/13 06:47:46;;;;;;;9.50;2.65;;;;;;;9.91;100.00;100940.28;5069393;28;20460;-73
2021/11/13 06:50:14;;;;;;;6.43;2.42;;;;;;;9.93;100.00;100950.88;5074162;28;20555;-74
2021/11/13 06:52:55;;;;;;;13.00;3.00;;;;;;;9.93;100.00;100953.53;5070475;28;20064;-74
2021/11/13 06:55:23;;;;;;;11.55;2.95;;;;;;;9.92;100.00;100950.00;5073120;28;20147;-74
2021/11/13 06:57:51;;;;;;;7.20;3.17;;;;;;;9.90;100.00;100958.03;5071437;28;20060;-74
2021/11/13 07:00:22;;;;;;;6.28;2.67;;;;;;;9.89;100.00;100958.97;5071997;28;20059;-73
2021/11/13 07:02:52;;;;;;;10.95;3.35;;;;;;;9.89;100.00;100963.41;5067969;28;20052;-73
2021/11/13 07:05:20;;;;;;;6.88;2.58;;;;;;;9.89;100.00;100974.06;5054557;28;20074;-74
2021/11/13 07:07:48;;;;;;;8.60;3.10;;;;;;;9.89;100.00;100966.97;5071040;28;20079;-73
2021/11/13 07:10:18;;;;;;;6.90;2.55;;;;;;;9.90;100.00;100978.50;5071369;28;20131;-73
2021/11/13 07:12:46;;;;;;;11.82;3.22;;;;;;;9.89;100.00;100984.72;5070375;28;20510;-74
2021/11/13 07:15:16;;;;;;;10.73;3.22;;;;;;;9.88;100.00;100991.00;5069460;28;20555;-68
2021/11/13 07:17:45;;;;;;;10.73;3.40;;;;;;;9.85;100.00;100986.59;5075693;28;20097;-74
2021/11/13 07:20:13;;;;;;;10.55;3.22;;;;;;;9.88;100.00;100994.53;5073033;28;20039;-73
2021/11/13 07:22:46;;;;;;;8.00;3.28;;;;;;;9.88;100.00;100997.19;5069573;28;20152;-73
2021/11/13 07:25:15;;;;;;;8.15;3.00;;;;;;;9.89;100.00;101006.94;5073573;28;20105;-73
2021/11/13 07:27:47;;;;;;;8.35;2.90;;;;;;;9.90;100.00;101013.16;5071993;28;20059;-74
2021/11/13 07:30:18;;;;;;;9.57;3.15;;;;;;;9.91;100.00;101018.44;5070891;28;20054;-73
2021/11/13 07:32:47;;;;;;;9.50;3.38;;;;;;;9.92;100.00;101013.97;5069915;28;20171;-72
2021/11/13 07:35:15;;;;;;;11.90;3.45;;;;;;;9.93;100.00;101021.06;5065943;28;20039;-71
2021/11/13 07:37:43;;;;;;;7.80;3.05;;;;;;;9.94;100.00;101021.94;5076724;28;20184;-73
2021/11/13 07:40:15;;;;;;;9.88;3.20;;;;;;;9.96;100.00;101030.75;5071139;28;20051;-73
2021/11/13 07:42:45;;;;;;;9.23;3.10;;;;;;;9.95;100.00;101023.69;5075710;28;20070;-74
2021/11/13 07:45:13;;;;;;;10.95;3.47;;;;;;;9.96;100.00;101029.00;5068971;28;20692;-73
2021/11/13 07:47:41;;;;;;;4.93;2.95;;;;;;;9.98;100.00;101028.94;5075890;28;20124;-68
2021/11/13 07:50:11;;;;;;;10.40;3.42;;;;;;;9.98;100.00;101032.47;5069759;28;20056;-69
2021/11/13 07:52:39;;;;;;;21.85;9.63;;;;;;;9.99;100.00;101036.88;5069183;28;20533;-69
2021/11/13 07:55:08;;;;;;;61.95;25.55;;;;;;;9.98;100.00;101036.94;5066874;28;20043;-70
2021/11/13 07:57:36;;;;;;;33.08;15.52;;;;;;;10.00;100.00;101040.44;5077017;28;20047;-65
2021/11/13 08:00:09;;;;;;;29.30;15.45;;;;;;;10.00;100.00;101040.44;5069793;28;20043;-65
2021/11/13 08:02:37;;;;;;;40.80;36.78;;;;;;;10.01;100.00;101048.41;5075912;28;20044;-66
2021/11/13 08:05:05;;;;;;;18.98;13.63;;;;;;;10.05;100.00;101044.72;5073080;28;20052;-66
2021/11/13 08:07:33;;;;;;;14.13;8.15;;;;;;;10.08;100.00;101047.31;5072141;28;20102;-66
2021/11/13 08:10:01;;;;;;;9.93;5.35;;;;;;;10.14;100.00;101053.41;5073341;28;20044;-66
2021/11/13 08:12:29;;;;;;;12.20;5.93;;;;;;;10.18;100.00;101042.63;5074729;28;20101;-67
2021/11/13 08:15:00;;;;;;;9.45;4.22;;;;;;;10.24;100.00;101054.91;5073333;28;20071;-66
2021/11/13 08:17:29;;;;;;;6.82;2.97;;;;;;;10.26;100.00;101053.94;5074798;28;20229;-66
2021/11/13 08:19:57;;;;;;;10.77;4.22;;;;;;;10.26;100.00;101064.59;5070309;28;20056;-66
2021/11/13 08:22:30;;;;;;;13.40;4.07;;;;;;;10.28;100.00;101065.44;5071562;28;20075;-67
2021/11/13 08:25:07;;;;;;;9.57;4.70;;;;;;;10.35;100.00;101068.88;5069224;28;20063;-68
2021/11/13 08:27:37;;;;;;;19.90;8.50;;;;;;;10.46;100.00;101074.75;5074212;28;20094;-69
2021/11/13 08:30:08;;;;;;;12.93;5.40;;;;;;;10.55;100.00;101078.09;5071526;28;20040;-68
2021/11/13 08:32:39;;;;;;;12.10;4.95;;;;;;;10.65;100.00;101084.91;5073436;28;20163;-68
2021/11/13 08:35:12;;;;;;;11.30;4.30;;;;;;;10.73;100.00;101082.03;5075693;28;20135;-68
2021/11/13 08:37:43;;;;;;;8.45;3.50;;;;;;;10.76;100.00;101087.28;5073823;28;20063;-68
2021/11/13 08:40:12;;;;;;;6.10;2.70;;;;;;;10.83;100.00;101092.41;5070054;28;20123;-68
2021/11/13 08:42:40;;;;;;;9.35;3.33;;;;;;;10.91;100.00;101088.63;5071344;28;21326;-68
2021/11/13 08:45:11;;;;;;;13.35;5.50;;;;;;;10.95;100.00;101091.16;5069509;28;20285;-68
2021/11/13 08:47:42;;;;;;;9.88;4.10;;;;;;;11.03;100.00;101090.91;5065678;28;20399;-68
2021/11/13 08:50:13;;;;;;;12.25;4.97;;;;;;;11.10;100.00;101094.28;5075926;28;20048;-71
2021/11/13 08:52:40;;;;;;;6.47;2.70;;;;;;;11.10;100.00;101095.19;5070660;28;20040;-72
2021/11/13 08:55:09;;;;;;;11.80;4.28;;;;;;;11.20;100.00;101093.09;5070982;28;20140;-70
2021/11/13 08:57:37;;;;;;;6.47;3.30;;;;;;;11.19;100.00;101102.91;5073802;28;20051;-72
2021/11/13 09:00:06;;;;;;;7.70;2.92;;;;;;;11.17;100.00;101101.22;5075075;28;20052;-71
2021/11/13 09:02:34;;;;;;;5.70;2.65;;;;;;;11.17;100.00;101107.41;5071609;28;20090;-71
2021/11/13 09:05:05;;;;;;;10.70;3.97;;;;;;;11.18;100.00;101106.47;5070605;28;20070;-71
2021/11/13 09:07:33;;;;;;;6.75;2.60;;;;;;;11.00;100.00;101110.59;5081525;28;20579;-72
2021/11/13 09:10:02;;;;;;;6.93;3.05;;;;;;;11.08;100.00;101114.81;5072329;28;20076;-71
2021/11/13 09:12:31;;;;;;;8.25;2.88;;;;;;;11.10;100.00;101121.88;5076144;28;20121;-71
2021/11/13 09:15:03;;;;;;;11.27;3.35;;;;;;;11.13;100.00;101119.09;5076878;28;20048;-72
2021/11/13 09:17:31;;;;;;;9.93;2.72;;;;;;;11.18;100.00;101113.63;5076009;28;20952;-71
2021/11/13 09:20:00;;;;;;;8.90;3.10;;;;;;;11.31;100.00;101120.34;5077276;28;20377;-71
2021/11/13 09:22:30;;;;;;;7.28;2.60;;;;;;;11.48;100.00;101119.84;5078375;28;20048;-72
2021/11/13 09:24:58;;;;;;;5.75;2.75;;;;;;;11.56;100.00;101119.56;5074588;28;20189;-70
2021/11/13 09:27:26;;;;;;;9.95;3.25;;;;;;;11.76;100.00;101122.50;5071208;28;20045;-71
2021/11/13 09:29:54;;;;;;;8.38;3.25;;;;;;;11.82;100.00;101129.44;5078114;28;20497;-71
2021/11/13 09:32:22;;;;;;;6.47;2.85;;;;;;;12.10;100.00;101128.56;5071309;28;20078;-70
2021/11/13 09:34:50;;;;;;;6.13;2.72;;;;;;;11.94;100.00;101131.75;5075921;28;20084;-71
2021/11/13 09:37:18;;;;;;;5.93;2.60;;;;;;;11.96;100.00;101145.06;5071346;28;20052;-71
2021/11/13 09:39:53;;;;;;;5.90;2.40;;;;;;;11.67;100.00;101144.16;5080373;28;20044;-71
2021/11/13 09:42:27;;;;;;;7.97;2.92;;;;;;;11.64;100.00;101144.25;5068193;28;20388;-69
2021/11/13 09:44:55;;;;;;;5.82;2.53;;;;;;;11.64;100.00;101149.59;5076339;28;20134;-69
2021/11/13 09:47:23;;;;;;;5.47;2.30;;;;;;;11.54;100.00;101142.81;5073852;28;20133;-69
2021/11/13 09:49:51;;;;;;;5.13;2.45;;;;;;;11.45;100.00;101146.63;5077584;28;20060;-69
2021/11/13 09:52:19;;;;;;;7.55;2.50;;;;;;;11.40;100.00;101148.56;5072455;28;20086;-69
2021/11/13 09:54:47;;;;;;;8.32;2.80;;;;;;;11.24;100.00;101152.63;5076431;28;20600;-69
2021/11/13 09:57:16;;;;;;;6.32;2.08;;;;;;;11.25;100.00;101149.91;5071900;28;20277;-67
2021/11/13 09:59:44;;;;;;;5.00;2.10;;;;;;;11.22;100.00;101152.69;5076511;28;20052;-68
2021/11/13 10:02:12;;;;;;;5.72;1.90;;;;;;;11.24;100.00;101163.31;5074566;28;20040;-69
2021/11/13 10:04:40;;;;;;;6.35;2.10;;;;;;;11.33;100.00;101165.72;5075969;28;20056;-68
2021/11/13 10:07:09;;;;;;;6.57;2.75;;;;;;;11.40;100.00;101167.28;5074018;28;20457;-68
2021/11/13 10:09:37;;;;;;;7.10;3.53;;;;;;;11.50;100.00;101166.09;5073936;28;20162;-67
2021/11/13 10:12:05;;;;;;;6.32;2.10;;;;;;;11.48;100.00;101167.06;5070766;28;20068;-72
2021/11/13 10:14:37;;;;;;;8.32;2.53;;;;;;;11.62;100.00;101171.97;5078343;28;20661;-72
2021/11/13 10:17:19;;;;;;;6.82;2.33;;;;;;;11.62;100.00;101174.66;5072686;28;20052;-72
2021/11/13 10:19:48;;;;;;;7.55;2.38;;;;;;;11.71;100.00;101169.00;5078190;28;20139;-71
2021/11/13 10:22:17;;;;;;;9.75;2.83;;;;;;;11.79;100.00;101166.97;5071334;28;20124;-69
2021/11/13 10:24:47;;;;;;;5.55;2.10;;;;;;;11.66;100.00;101170.94;5078450;28;20079;-71
2021/11/13 10:27:15;;;;;;;4.15;1.90;;;;;;;11.73;100.00;101167.16;5073705;28;20053;-71
2021/11/13 10:29:47;;;;;;;5.43;1.85;;;;;;;11.97;100.00;101173.56;5076789;28;20500;-70
2021/11/13 10:32:17;;;;;;;5.45;2.30;;;;;;;12.28;100.00;101164.53;5067832;28;20167;-71
2021/11/13 10:34:47;;;;;;;4.82;2.17;;;;;;;12.48;100.00;101163.81;5076041;28;20044;-70
2021/11/13 10:37:19;;;;;;;7.90;1.92;;;;;;;12.53;100.00;101167.19;5074205;28;20098;-67
2021/11/13 10:39:51;;;;;;;4.00;1.92;;;;;;;12.90;100.00;101165.91;5073165;28;20180;-67
2021/11/13 10:42:22;;;;;;;5.47;2.10;;;;;;;13.14;100.00;101166.78;5067501;28;20097;-69
2021/11/13 10:44:54;;;;;;;6.03;2.50;;;;;;;13.39;100.00;101169.44;5075796;28;20083;-68
2021/11/13 10:47:29;;;;;;;9.52;2.50;;;;;;;13.43;100.00;101178.22;5071748;28;20314;-68
2021/11/13 10:50:14;;;;;;;3.83;2.10;;;;;;;13.19;100.00;101178.19;5076369;28;20087;-68
2021/11/13 10:52:42;;;;;;;3.50;1.95;;;;;;;12.75;100.00;101174.47;5066309;28;20431;-67
2021/11/13 10:55:17;;;;;;;4.72;2.10;;;;;;;12.62;100.00;101180.28;5076985;28;20069;-68
2021/11/13 10:58:28;;;;;;;9.93;2.20;;;;;;;12.36;100.00;101180.31;5066878;28;20048;-69
2021/11/13 11:00:58;;;;;;;7.15;2.20;;;;;;;12.48;100.00;101174.53;5078958;28;20144;-68
2021/11/13 11:03:30;;;;;;;4.82;2.33;;;;;;;12.32;100.00;101185.75;5067948;28;20492;-68
2021/11/13 11:06:00;;;;;;;6.78;2.65;;;;;;;12.34;100.00;101180.34;5074601;28;20051;-68
2021/11/13 11:08:30;;;;;;;5.03;2.25;;;;;;;12.29;100.00;101187.66;5067737;28;20464;-68
2021/11/13 11:10:59;;;;;;;6.75;2.80;;;;;;;12.27;100.00;101189.50;5073884;28;20678;-68
2021/11/13 11:13:42;;;;;;;5.70;2.65;;;;;;;12.25;100.00;101192.25;5069391;28;20131;-69
2021/11/13 11:16:28;;;;;;;7.97;2.80;;;;;;;12.21;100.00;101198.63;5074347;28;20411;-68
2021/11/13 11:18:58;;;;;;;6.75;3.22;;;;;;;12.11;100.00;101191.84;5070533;28;20513;-68
2021/11/13 11:21:50;;;;;;;4.70;2.20;;;;;;;12.08;100.00;101206.16;5074652;28;20044;-72
2021/11/13 11:24:22;;;;;;;5.72;2.10;;;;;;;12.19;100.00;101202.25;5065769;28;20828;-71